Time;durP1;ratioP1;P1;durP2;ratioP2;P2;SDS_P1;SDS_P2;PMS_P1;PMS_P2;Temp;Humidity;BMP_temperature;BMP_pressure;BME280_temperature;BME280_humidity;BME280_pressure;Samples;Min_cycle;Max_cycle;Signal;HPM_P1;HPM_P2
2022/11/01 00:02:50;;;;;;;27.20;19.77;;;15.80;82.70;;;;;;10941911;32;20050;-74
2022/11/01 00:09:11;;;;;;;20.88;18.62;;;15.80;82.80;;;;;;10941735;32;20018;-75
2022/11/01 00:15:13;;;;;;;19.55;14.73;;;15.70;82.90;;;;;;10941568;32;20041;-74
2022/11/01 00:21:15;;;;;;;19.42;14.27;;;15.60;82.90;;;;;;10568353;27;11827708;-75
2022/11/01 00:27:19;;;;;;;14.20;11.02;;;15.50;82.90;;;;;;10675657;33;20022;-74
2022/11/01 00:33:21;;;;;;;17.45;12.05;;;15.50;83.00;;;;;;10674892;33;20064;-74
2022/11/01 00:39:23;;;;;;;14.70;9.82;;;15.30;83.00;;;;;;10674283;33;20033;-74
2022/11/01 00:45:57;;;;;;;16.77;13.57;;;15.30;83.00;;;;;;10680231;33;20070;-74
2022/11/01 00:51:59;;;;;;;21.30;16.23;;;15.30;82.90;;;;;;10752923;33;20060;-74
2022/11/01 00:58:01;;;;;;;19.20;13.82;;;15.40;82.90;;;;;;10752277;33;20024;-75
2022/11/01 01:04:03;;;;;;;18.00;14.00;;;15.40;83.00;;;;;;10756023;33;20024;-74
2022/11/01 01:10:06;;;;;;;17.02;14.55;;;15.40;83.00;;;;;;10756165;32;20059;-74
2022/11/01 01:16:10;;;;;;;22.05;14.10;;;15.30;83.00;;;;;;10751724;32;20380;-74
2022/11/01 01:22:12;;;;;;;14.87;13.30;;;15.30;82.90;;;;;;10755607;33;20032;-75
2022/11/01 01:28:14;;;;;;;18.48;15.45;;;15.30;83.00;;;;;;10742578;33;20020;-74
2022/11/01 01:34:17;;;;;;;20.60;15.88;;;15.30;83.40;;;;;;10755339;33;20021;-74
2022/11/01 01:40:19;;;;;;;21.20;15.75;;;15.20;83.30;;;;;;10755045;33;20025;-74
2022/11/01 01:46:21;;;;;;;15.45;11.75;;;15.20;83.00;;;;;;10754994;33;20024;-74
2022/11/01 01:52:24;;;;;;;16.50;12.65;;;15.00;83.00;;;;;;10753903;33;20025;-74
2022/11/01 01:58:34;;;;;;;15.32;9.57;;;15.00;83.20;;;;;;10753954;32;20029;-74
2022/11/01 02:05:19;;;;;;;15.60;11.15;;;14.90;83.10;;;;;;10754470;33;20337;-74
2022/11/01 02:11:21;;;;;;;20.08;13.52;;;14.90;83.10;;;;;;10741125;33;20345;-74
2022/11/01 02:17:54;;;;;;;18.17;15.65;;;14.90;83.10;;;;;;10750102;33;20352;-74
2022/11/01 02:24:15;;;;;;;17.35;13.80;;;15.00;83.30;;;;;;10753970;33;20055;-74
2022/11/01 02:30:23;;;;;;;13.15;11.70;;;15.00;83.80;;;;;;10749731;33;20028;-74
2022/11/01 02:37:00;;;;;;;15.35;12.32;;;15.00;83.60;;;;;;10750953;33;20047;-74
2022/11/01 02:43:07;;;;;;;15.05;12.05;;;14.90;83.40;;;;;;10571607;33;20323;-73
2022/11/01 02:49:12;;;;;;;17.67;11.48;;;14.80;83.40;;;;;;10570537;33;20411;-74
2022/11/01 02:55:30;;;;;;;18.52;12.75;;;14.70;83.40;;;;;;10570255;33;20423;-74
2022/11/01 03:01:34;;;;;;;15.30;12.20;;;14.70;83.70;;;;;;10569709;33;20048;-73
2022/11/01 03:07:38;;;;;;;20.73;13.43;;;14.70;84.00;;;;;;10569817;33;20037;-73
2022/11/01 03:13:42;;;;;;;17.77;12.05;;;14.80;83.80;;;;;;10566704;33;20065;-73
2022/11/01 03:19:48;;;;;;;13.60;12.13;;;14.70;83.60;;;;;;10729667;33;20032;-73
2022/11/01 03:25:54;;;;;;;10.98;9.07;;;14.70;83.50;;;;;;10748121;33;20051;-73
2022/11/01 03:31:58;;;;;;;12.70;9.00;;;14.70;83.40;;;;;;10751974;33;20017;-73
2022/11/01 03:38:12;;;;;;;14.23;10.32;;;14.70;83.40;;;;;;10751824;33;20025;-73
2022/11/01 03:44:15;;;;;;;11.98;8.07;;;14.60;83.40;;;;;;10747613;33;20102;-73
2022/11/01 03:50:22;;;;;;;13.98;8.82;;;14.60;83.40;;;;;;10751444;33;20024;-73
2022/11/01 03:56:24;;;;;;;12.00;9.07;;;14.50;83.40;;;;;;10751424;33;20392;-73
2022/11/01 04:02:26;;;;;;;15.07;11.35;;;14.50;83.40;;;;;;10751384;33;20064;-73
2022/11/01 04:08:47;;;;;;;10.52;8.35;;;14.50;83.40;;;;;;10751057;33;20064;-73
2022/11/01 04:21:14;;;;;;;10.48;7.25;;;14.30;83.60;;;;;;10757242;32;20020;-74
2022/11/01 04:27:16;;;;;;;10.93;8.20;;;14.20;83.70;;;;;;10757234;33;20055;-73
2022/11/01 04:33:18;;;;;;;12.70;9.95;;;14.30;84.00;;;;;;10757056;33;20044;-73
2022/11/01 04:39:20;;;;;;;18.00;8.57;;;14.30;83.80;;;;;;10757079;33;20427;-73
2022/11/01 04:45:22;;;;;;;9.48;7.37;;;14.50;83.70;;;;;;10756708;33;20028;-73
2022/11/01 04:51:24;;;;;;;10.57;7.60;;;14.30;83.60;;;;;;10756147;33;20067;-73
2022/11/01 04:57:26;;;;;;;11.98;10.10;;;14.30;83.60;;;;;;10756368;33;20381;-73
2022/11/01 05:03:47;;;;;;;13.75;10.85;;;14.30;83.70;;;;;;10739153;33;20032;-73
2022/11/01 05:09:49;;;;;;;14.30;9.93;;;14.30;83.60;;;;;;10756030;33;20059;-73
2022/11/01 05:16:02;;;;;;;12.73;8.70;;;14.30;83.70;;;;;;10756033;33;20025;-73
2022/11/01 05:22:04;;;;;;;12.27;8.20;;;14.30;83.90;;;;;;10755677;32;20334;-73
2022/11/01 05:28:10;;;;;;;17.73;10.80;;;14.20;84.10;;;;;;10755353;33;20059;-73
2022/11/01 05:34:12;;;;;;;12.98;9.70;;;14.20;84.40;;;;;;10755423;33;20028;-73
2022/11/01 05:40:15;;;;;;;12.60;8.27;;;14.20;84.50;;;;;;10755178;33;20033;-73
2022/11/01 05:46:17;;;;;;;12.73;9.30;;;14.20;84.70;;;;;;10755218;33;20016;-73
2022/11/01 05:52:21;;;;;;;12.35;9.02;;;14.10;84.80;;;;;;10754753;32;20040;-73
2022/11/01 05:58:23;;;;;;;11.32;8.90;;;14.10;84.70;;;;;;10741658;33;20028;-74
2022/11/01 06:04:26;;;;;;;12.90;9.18;;;14.10;84.60;;;;;;10754501;33;20025;-73
2022/11/01 06:10:29;;;;;;;10.70;8.02;;;14.10;84.40;;;;;;10787063;33;20032;-73
2022/11/01 06:16:34;;;;;;;9.40;7.45;;;13.90;84.40;;;;;;10790599;33;20040;-73
2022/11/01 06:23:06;;;;;;;9.77;6.15;;;13.70;84.50;;;;;;10777349;33;20024;-73
2022/11/01 06:29:17;;;;;;;9.73;6.72;;;13.70;84.50;;;;;;10790259;33;20063;-74
2022/11/01 06:35:20;;;;;;;13.62;9.55;;;13.80;84.60;;;;;;10790754;33;20009;-73
2022/11/01 06:41:23;;;;;;;10.38;7.70;;;14.00;84.70;;;;;;10776508;33;20047;-74
2022/11/01 06:47:25;;;;;;;12.32;9.25;;;14.00;84.60;;;;;;10789787;33;20028;-74
2022/11/01 06:53:27;;;;;;;8.75;6.90;;;14.20;84.50;;;;;;10789620;33;20032;-73
2022/11/01 06:59:29;;;;;;;9.90;6.70;;;14.20;84.40;;;;;;10776529;33;20094;-74
2022/11/01 07:05:34;;;;;;;8.32;5.65;;;14.20;84.50;;;;;;10789210;33;20032;-74
2022/11/01 07:11:36;;;;;;;8.98;5.93;;;14.20;84.40;;;;;;10788950;33;20352;-73
2022/11/01 07:17:38;;;;;;;14.25;8.63;;;14.20;84.30;;;;;;10788910;33;20021;-74
2022/11/01 07:23:40;;;;;;;12.27;7.43;;;14.20;84.50;;;;;;10784771;33;20393;-73
2022/11/01 07:30:18;;;;;;;12.27;7.75;;;14.30;84.30;;;;;;10788569;33;20066;-74
2022/11/01 07:36:40;;;;;;;9.05;5.53;;;14.20;84.20;;;;;;10788278;33;20093;-73
2022/11/01 07:42:43;;;;;;;14.65;10.13;;;14.30;84.30;;;;;;10788323;33;20367;-73
2022/11/01 07:48:50;;;;;;;14.68;7.85;;;14.30;84.20;;;;;;10788019;33;20028;-74
2022/11/01 07:54:52;;;;;;;7.97;5.05;;;14.50;84.20;;;;;;10784400;33;20036;-74
2022/11/01 08:00:55;;;;;;;12.13;5.68;;;14.60;84.20;;;;;;10783909;33;20043;-74
2022/11/01 08:07:07;;;;;;;11.52;6.30;;;14.70;84.00;;;;;;10787582;33;20032;-75
2022/11/01 08:13:14;;;;;;;8.60;5.90;;;14.70;84.00;;;;;;10787427;33;20078;-74
2022/11/01 08:19:16;;;;;;;10.65;7.00;;;14.80;84.00;;;;;;10785276;33;20075;-74
2022/11/01 08:25:19;;;;;;;11.27;5.80;;;15.00;84.00;;;;;;10763209;27;20036;-74
2022/11/01 08:31:21;;;;;;;7.97;5.80;;;15.00;83.90;;;;;;10750685;33;20431;-75
2022/11/01 08:37:34;;;;;;;13.60;10.43;;;15.10;83.80;;;;;;10750572;33;20353;-77
2022/11/01 08:43:36;;;;;;;12.98;9.82;;;15.10;83.90;;;;;;10750168;32;20029;-80
2022/11/01 08:49:38;;;;;;;13.65;10.18;;;15.20;84.10;;;;;;10724051;32;20037;-79
2022/11/01 08:55:40;;;;;;;34.30;23.98;;;15.20;84.10;;;;;;10713868;33;20066;-79
2022/11/01 09:01:43;;;;;;;31.52;21.95;;;15.30;84.30;;;;;;10703255;33;20021;-78
2022/11/01 09:07:45;;;;;;;22.25;17.67;;;15.20;84.60;;;;;;10707023;33;20044;-79
2022/11/01 09:13:48;;;;;;;26.73;19.12;;;15.20;84.80;;;;;;10719682;33;20278;-79
2022/11/01 09:19:51;;;;;;;27.23;22.37;;;15.20;84.70;;;;;;10702715;33;20084;-79
2022/11/01 09:25:59;;;;;;;24.42;17.00;;;15.20;84.90;;;;;;10718457;33;20394;-79
2022/11/01 09:32:01;;;;;;;20.02;13.75;;;15.10;85.30;;;;;;10718782;33;20032;-79
2022/11/01 09:38:06;;;;;;;25.85;15.00;;;15.00;85.60;;;;;;10718819;33;20047;-79
2022/11/01 09:44:19;;;;;;;30.30;22.13;;;15.10;85.50;;;;;;10718411;33;20063;-78
2022/11/01 09:50:38;;;;;;;30.95;19.98;;;15.20;85.50;;;;;;10718297;33;20024;-79
2022/11/01 09:56:50;;;;;;;23.48;17.30;;;15.10;85.90;;;;;;10715687;33;20067;-76
2022/11/01 10:02:58;;;;;;;22.15;17.30;;;15.20;85.80;;;;;;10718330;33;20013;-75
2022/11/01 10:09:00;;;;;;;33.58;22.70;;;15.20;85.50;;;;;;10705474;33;20079;-75
2022/11/01 10:15:34;;;;;;;30.25;22.42;;;15.20;85.80;;;;;;10712629;33;20435;-75
2022/11/01 10:22:27;;;;;;;29.58;22.58;;;15.20;86.00;;;;;;10752631;33;20033;-75
2022/11/01 10:29:11;;;;;;;34.35;22.37;;;15.30;86.00;;;;;;10755600;33;20090;-74
2022/11/01 10:35:19;;;;;;;24.30;18.25;;;15.30;86.10;;;;;;10755404;33;20037;-78
2022/11/01 10:41:28;;;;;;;26.57;19.40;;;15.40;85.90;;;;;;10755792;33;20051;-78
2022/11/01 10:47:31;;;;;;;38.00;30.08;;;15.50;85.90;;;;;;10751696;33;20369;-78
2022/11/01 10:53:43;;;;;;;33.53;22.27;;;15.50;85.80;;;;;;10790216;33;20047;-78
2022/11/01 10:59:47;;;;;;;23.85;17.33;;;15.60;85.80;;;;;;10716460;33;20021;-78
2022/11/01 11:05:52;;;;;;;33.35;22.62;;;15.70;85.70;;;;;;10757048;32;20040;-78
2022/11/01 11:12:02;;;;;;;29.52;20.58;;;15.70;85.50;;;;;;10752140;33;20043;-75
2022/11/01 11:18:16;;;;;;;32.00;20.25;;;15.90;85.30;;;;;;10739359;33;20216;-75
2022/11/01 11:24:42;;;;;;;36.33;24.80;;;15.90;85.10;;;;;;10750165;33;20051;-75
2022/11/01 11:30:44;;;;;;;28.23;19.70;;;15.90;85.00;;;;;;10752070;33;20055;-78
2022/11/01 11:37:13;;;;;;;33.55;22.05;;;15.90;85.00;;;;;;10751920;33;20043;-78
2022/11/01 11:43:30;;;;;;;36.50;27.02;;;15.90;85.00;;;;;;10749588;33;20020;-78
2022/11/01 11:49:32;;;;;;;29.08;21.37;;;15.90;85.00;;;;;;10738524;33;20028;-78
2022/11/01 11:55:54;;;;;;;36.63;23.52;;;15.80;85.00;;;;;;10738354;33;20028;-78
2022/11/01 12:02:20;;;;;;;30.27;21.77;;;15.90;85.20;;;;;;10751370;33;20047;-77
2022/11/01 12:08:45;;;;;;;45.78;27.40;;;15.90;85.30;;;;;;10751825;33;20295;-78
2022/11/01 12:14:52;;;;;;;45.22;24.70;;;15.90;85.40;;;;;;10738260;33;20055;-78
2022/11/01 12:20:54;;;;;;;36.00;23.73;;;16.00;85.40;;;;;;10750751;33;20021;-77
2022/11/01 12:27:03;;;;;;;39.10;26.40;;;16.10;85.40;;;;;;10750542;33;20021;-78
2022/11/01 12:33:23;;;;;;;38.67;27.10;;;16.10;85.50;;;;;;10748789;32;20063;-78
2022/11/01 12:39:59;;;;;;;34.70;24.25;;;16.20;85.50;;;;;;10755899;32;20052;-78
2022/11/01 12:46:09;;;;;;;59.65;47.17;;;16.30;85.30;;;;;;10752736;32;20059;-77
2022/11/01 12:52:17;;;;;;;64.50;49.38;;;16.30;85.50;;;;;;10752594;33;20063;-76
2022/11/01 12:58:21;;;;;;;44.73;33.07;;;16.20;85.60;;;;;;10742932;33;20451;-75
2022/11/01 13:04:50;;;;;;;44.13;31.20;;;16.20;85.70;;;;;;10755334;33;20043;-74
2022/11/01 13:11:02;;;;;;;44.72;33.95;;;16.30;85.50;;;;;;10748065;33;20325;-75
2022/11/01 13:17:18;;;;;;;40.60;33.85;;;16.40;85.50;;;;;;10755776;33;20047;-74
2022/11/01 13:23:36;;;;;;;34.92;28.23;;;16.40;85.60;;;;;;10751472;33;20431;-74
2022/11/01 13:29:48;;;;;;;43.03;32.17;;;16.50;85.60;;;;;;10804259;32;20025;-74
2022/11/01 13:36:17;;;;;;;44.83;34.10;;;16.50;85.40;;;;;;10755344;33;20078;-74
2022/11/01 13:42:45;;;;;;;64.82;46.17;;;16.40;85.30;;;;;;10742328;33;20039;-74
2022/11/01 13:48:56;;;;;;;42.30;33.28;;;16.30;85.40;;;;;;10750561;33;20036;-74
2022/11/01 13:55:20;;;;;;;45.70;33.80;;;16.30;85.60;;;;;;10753869;33;20315;-75
2022/11/01 14:01:34;;;;;;;66.68;49.08;;;16.30;85.60;;;;;;10785378;33;20059;-75
2022/11/01 14:07:42;;;;;;;57.95;39.75;;;16.20;85.80;;;;;;10777627;33;20016;-74
2022/11/01 14:13:49;;;;;;;41.45;28.05;;;16.30;85.90;;;;;;10790787;33;20024;-75
2022/11/01 14:19:59;;;;;;;60.08;41.78;;;16.30;85.70;;;;;;10790617;33;20039;-75
2022/11/01 14:26:20;;;;;;;47.65;33.55;;;16.40;85.60;;;;;;10787216;33;20021;-75
2022/11/01 14:32:30;;;;;;;71.53;55.67;;;16.50;85.60;;;;;;10790148;33;20043;-75
2022/11/01 14:38:44;;;;;;;72.90;52.70;;;16.50;85.80;;;;;;10774375;33;20032;-75
2022/11/01 14:44:51;;;;;;;62.47;44.65;;;16.50;85.90;;;;;;10785966;33;20024;-75
2022/11/01 14:51:11;;;;;;;63.45;42.92;;;16.50;86.00;;;;;;10789716;33;20028;-75
2022/11/01 14:57:27;;;;;;;52.00;42.35;;;16.50;86.10;;;;;;10776195;33;20328;-75
2022/11/01 15:03:30;;;;;;;46.17;32.40;;;16.50;86.10;;;;;;10789303;33;20385;-78
2022/11/01 15:09:33;;;;;;;53.75;37.05;;;16.40;86.10;;;;;;10789014;33;20043;-78
2022/11/01 15:15:37;;;;;;;47.58;31.95;;;16.40;86.00;;;;;;10755751;33;20413;-78
2022/11/01 15:21:42;;;;;;;51.22;32.42;;;16.40;86.00;;;;;;10752228;33;20020;-78
2022/11/01 15:27:45;;;;;;;48.90;31.45;;;16.40;85.80;;;;;;10750717;33;20281;-78
2022/11/01 15:33:57;;;;;;;56.05;37.70;;;16.50;85.80;;;;;;10746621;33;20389;-78
2022/11/01 15:40:18;;;;;;;46.83;33.55;;;16.40;85.90;;;;;;10750346;33;20033;-78
2022/11/01 15:46:24;;;;;;;47.25;36.40;;;16.40;85.90;;;;;;10749912;33;20052;-78
2022/11/01 15:52:29;;;;;;;46.78;35.60;;;16.40;85.80;;;;;;10736964;33;20439;-78
2022/11/01 16:05:45;;;;;;;53.58;39.22;;;16.40;85.90;;;;;;10824545;32;20369;-78
2022/11/01 16:12:22;;;;;;;57.62;41.37;;;16.30;85.90;;;;;;10819357;32;20053;-79
2022/11/01 16:18:25;;;;;;;50.33;35.22;;;16.30;85.90;;;;;;10823534;32;20397;-78
2022/11/01 16:24:27;;;;;;;57.90;37.58;;;16.30;85.80;;;;;;10285072;27;16992363;-79
2022/11/01 16:30:50;;;;;;;48.25;29.20;;;16.30;85.80;;;;;;10789144;33;20337;-79
2022/11/01 16:37:24;;;;;;;39.88;33.78;;;16.30;85.80;;;;;;10712145;33;20045;-79
2022/11/01 16:43:29;;;;;;;54.35;36.75;;;16.20;85.90;;;;;;10713691;33;20013;-79
2022/11/01 16:49:33;;;;;;;52.53;38.00;;;16.20;85.90;;;;;;10700496;33;20037;-79
2022/11/01 16:55:38;;;;;;;48.85;34.35;;;16.20;85.80;;;;;;10713310;33;20033;-78
2022/11/01 17:01:40;;;;;;;57.72;41.50;;;16.20;86.00;;;;;;10700286;33;20055;-79
2022/11/01 17:07:42;;;;;;;53.78;37.83;;;16.20;86.00;;;;;;10697799;33;20055;-79
2022/11/01 17:13:45;;;;;;;57.83;39.33;;;16.20;86.00;;;;;;10677158;33;20056;-79
2022/11/01 17:19:55;;;;;;;43.28;27.00;;;16.20;85.90;;;;;;10677118;33;20308;-79
2022/11/01 17:25:57;;;;;;;51.80;35.42;;;16.20;85.80;;;;;;10681203;33;20353;-78
2022/11/01 17:32:01;;;;;;;51.30;39.15;;;16.20;85.80;;;;;;10682625;33;20029;-78
2022/11/01 17:38:05;;;;;;;42.97;36.45;;;16.10;85.90;;;;;;10682865;33;20338;-78
2022/11/01 17:44:11;;;;;;;47.25;35.38;;;16.10;86.00;;;;;;10732326;32;20198;-78
2022/11/01 17:50:15;;;;;;;48.97;33.58;;;16.00;86.10;;;;;;10729327;32;20055;-78
2022/11/01 17:56:21;;;;;;;47.45;34.80;;;16.10;86.00;;;;;;10678668;33;20033;-78
2022/11/01 18:02:23;;;;;;;50.85;34.15;;;16.00;86.00;;;;;;10682586;33;20037;-78
2022/11/01 18:08:30;;;;;;;49.40;33.30;;;16.10;85.90;;;;;;10682092;33;20029;-78
2022/11/01 18:14:55;;;;;;;47.03;36.80;;;16.10;85.90;;;;;;10680089;33;20029;-78
2022/11/01 18:21:34;;;;;;;58.08;38.63;;;16.10;85.90;;;;;;10680956;33;20394;-78
2022/11/01 18:27:37;;;;;;;39.78;30.25;;;16.10;85.90;;;;;;10677659;33;20059;-78
2022/11/01 18:33:53;;;;;;;45.65;32.78;;;16.00;86.10;;;;;;10742356;32;20051;-78
2022/11/01 18:40:31;;;;;;;46.63;33.28;;;16.10;86.30;;;;;;10743178;32;20013;-78
2022/11/01 18:46:56;;;;;;;51.03;35.50;;;16.10;86.20;;;;;;10676886;33;20028;-78
2022/11/01 18:53:17;;;;;;;49.63;34.70;;;16.00;86.20;;;;;;10676814;33;20030;-74
2022/11/01 18:59:28;;;;;;;49.67;37.83;;;16.10;86.20;;;;;;10676814;33;20060;-74
2022/11/01 19:05:32;;;;;;;53.85;37.70;;;16.10;86.20;;;;;;10678724;33;20075;-74
2022/11/01 19:11:35;;;;;;;54.08;35.53;;;16.10;86.00;;;;;;10729504;32;20420;-74
2022/11/01 19:17:39;;;;;;;52.25;31.73;;;16.10;86.00;;;;;;10679335;33;20025;-74
2022/11/01 19:23:46;;;;;;;42.83;28.27;;;16.10;85.90;;;;;;10741391;32;20041;-74
2022/11/01 19:29:59;;;;;;;42.28;27.35;;;16.10;85.90;;;;;;10679515;33;20056;-75
2022/11/01 19:36:05;;;;;;;56.05;36.97;;;16.00;85.90;;;;;;10675668;33;20068;-74
2022/11/01 19:42:30;;;;;;;47.75;34.20;;;16.00;86.10;;;;;;10728810;32;20338;-74
2022/11/01 19:48:48;;;;;;;52.85;37.00;;;16.00;86.10;;;;;;10675118;33;20428;-74
2022/11/01 19:55:33;;;;;;;52.62;40.08;;;16.00;86.10;;;;;;10679105;33;20021;-75
2022/11/01 20:01:45;;;;;;;48.53;35.85;;;15.90;86.30;;;;;;10716721;33;20055;-74
2022/11/01 20:07:47;;;;;;;48.13;34.00;;;15.90;86.30;;;;;;10712441;33;20056;-74
2022/11/01 20:13:49;;;;;;;50.03;33.10;;;16.00;86.20;;;;;;10716290;33;20055;-74
2022/11/01 20:19:52;;;;;;;51.55;35.85;;;15.90;86.30;;;;;;10714718;33;20068;-74
2022/11/01 20:25:54;;;;;;;73.87;56.33;;;15.90;86.20;;;;;;10714433;33;20036;-75
2022/11/01 20:31:56;;;;;;;60.45;41.88;;;15.80;86.30;;;;;;10740638;32;20041;-74
2022/11/01 20:37:59;;;;;;;48.70;35.50;;;15.70;86.40;;;;;;10716877;32;20071;-78
2022/11/01 20:44:01;;;;;;;62.92;41.37;;;15.70;86.50;;;;;;10714122;33;20045;-78
2022/11/01 20:50:05;;;;;;;55.08;34.38;;;15.70;86.50;;;;;;10713764;33;20405;-78
2022/11/01 20:56:08;;;;;;;59.20;38.25;;;15.70;86.50;;;;;;10714358;33;20021;-78
2022/11/01 21:02:12;;;;;;;47.30;30.95;;;15.70;86.50;;;;;;10716159;33;20025;-78
2022/11/01 21:08:23;;;;;;;52.20;34.15;;;15.70;86.40;;;;;;10717844;33;20025;-78
2022/11/01 21:14:35;;;;;;;64.53;36.00;;;15.70;86.30;;;;;;10720185;33;20052;-78
2022/11/01 21:20:48;;;;;;;66.75;42.60;;;15.70;86.40;;;;;;10719781;33;20017;-78
2022/11/01 21:26:50;;;;;;;64.68;38.67;;;15.80;86.50;;;;;;10719523;33;20047;-78
2022/11/01 21:32:52;;;;;;;54.17;29.65;;;15.70;86.40;;;;;;10719313;33;20025;-78
2022/11/01 21:39:02;;;;;;;47.50;33.80;;;15.70;86.30;;;;;;10719141;33;20063;-74
2022/11/01 21:45:28;;;;;;;43.67;28.05;;;15.70;86.30;;;;;;10718803;33;20386;-74
2022/11/01 21:51:31;;;;;;;39.95;28.30;;;15.70;86.30;;;;;;10718683;33;20021;-74
2022/11/01 21:57:33;;;;;;;39.42;28.25;;;15.70;86.30;;;;;;10718451;33;20025;-74
2022/11/01 22:03:35;;;;;;;30.48;22.98;;;15.70;86.40;;;;;;10714350;33;20025;-73
2022/11/01 22:09:38;;;;;;;46.53;25.65;;;15.70;86.30;;;;;;10720972;32;20029;-73
2022/11/01 22:15:40;;;;;;;32.75;25.83;;;15.60;86.40;;;;;;10713831;33;20025;-74
2022/11/01 22:21:43;;;;;;;36.80;28.38;;;15.60;86.40;;;;;;10705059;32;20021;-74
2022/11/01 22:27:45;;;;;;;29.45;19.67;;;15.60;86.50;;;;;;10717749;33;20024;-74
2022/11/01 22:33:54;;;;;;;26.52;18.77;;;15.60;86.50;;;;;;10704696;32;20025;-73
2022/11/01 22:39:56;;;;;;;25.58;16.35;;;15.60;86.40;;;;;;10717406;33;20056;-74
2022/11/01 22:46:00;;;;;;;29.27;19.95;;;15.60;86.30;;;;;;10717103;33;20026;-73
2022/11/01 22:52:03;;;;;;;32.75;25.17;;;15.40;86.40;;;;;;10715279;33;20059;-73
2022/11/01 22:58:37;;;;;;;32.42;23.50;;;15.30;86.40;;;;;;10704070;33;20047;-73
2022/11/01 23:04:39;;;;;;;33.63;27.30;;;15.30;86.50;;;;;;10716639;33;20220;-73
2022/11/01 23:10:46;;;;;;;22.52;19.45;;;15.40;86.40;;;;;;10703474;33;20056;-73
2022/11/01 23:16:49;;;;;;;21.40;16.80;;;15.30;86.50;;;;;;10713553;33;20394;-74
2022/11/01 23:22:51;;;;;;;24.75;19.83;;;15.30;86.50;;;;;;10715594;33;20082;-73
2022/11/01 23:28:56;;;;;;;29.52;23.73;;;15.30;86.60;;;;;;10715857;33;20052;-73
2022/11/01 23:35:20;;;;;;;20.00;16.25;;;15.20;86.70;;;;;;10716047;33;20299;-73
2022/11/01 23:41:31;;;;;;;37.08;24.25;;;15.20;86.70;;;;;;10715727;33;20084;-73
2022/11/01 23:47:38;;;;;;;27.98;21.90;;;15.20;86.60;;;;;;10702560;33;20039;-74
2022/11/01 23:53:41;;;;;;;18.25;13.27;;;15.10;86.60;;;;;;10715238;33;20379;-74
2022/11/01 23:59:43;;;;;;;25.83;20.20;;;15.10;86.60;;;;;;10715002;33;20052;-74
